createdAt,value
2018-02-09T00:00:37.064Z,41.35
2018-02-09T00:03:03.349Z,43.20
2018-02-09T00:05:29.662Z,42.40
2018-02-09T00:07:56.683Z,45.90
2018-02-09T00:10:23.803Z,45.08
2018-02-09T00:12:50.082Z,42.35
2018-02-09T00:15:17.131Z,42.47
2018-02-09T00:17:44.191Z,41.70
2018-02-09T00:20:10.487Z,41.45
2018-02-09T00:22:52.618Z,38.00
2018-02-09T00:25:18.903Z,41.25
2018-02-09T00:27:45.262Z,42.47
2018-02-09T00:30:12.302Z,41.95
2018-02-09T00:32:39.339Z,42.10
2018-02-09T00:35:07.114Z,40.47
2018-02-09T00:37:33.394Z,40.58
2018-02-09T00:39:59.682Z,39.25
2018-02-09T00:42:26.715Z,41.78
2018-02-09T00:44:54.086Z,43.75
2018-02-09T00:47:21.130Z,39.85
2018-02-09T00:49:48.205Z,42.62
2018-02-09T00:52:14.498Z,40.08
2018-02-09T00:54:40.802Z,40.38
2018-02-09T00:57:07.075Z,37.67
2018-02-09T00:59:34.150Z,40.63
2018-02-09T01:02:00.454Z,41.05
2018-02-09T01:04:26.762Z,39.53
2018-02-09T01:06:53.074Z,38.35
2018-02-09T01:09:19.343Z,42.58
2018-02-09T01:11:46.375Z,42.45
2018-02-09T01:14:12.682Z,42.90
2018-02-09T01:16:39.994Z,39.20
2018-02-09T01:19:06.302Z,42.83
2018-02-09T01:21:33.415Z,43.85
2018-02-09T01:23:59.739Z,42.38
2018-02-09T01:26:26.063Z,43.45
2018-02-09T01:28:52.374Z,43.20
2018-02-09T01:31:18.689Z,42.08
2018-02-09T01:33:45.741Z,43.50
2018-02-09T01:36:12.067Z,42.62
2018-02-09T01:38:39.386Z,41.75
2018-02-09T01:41:05.718Z,39.25
2018-02-09T01:43:32.022Z,41.90
2018-02-09T01:45:58.326Z,41.95
2018-02-09T01:48:24.646Z,41.50
2018-02-09T01:50:52.814Z,38.97
2018-02-09T01:53:19.884Z,40.45
2018-02-09T01:55:46.191Z,40.10
2018-02-09T01:58:13.210Z,41.85
2018-02-09T02:00:41.264Z,41.25
2018-02-09T02:03:07.582Z,40.92
2018-02-09T02:05:34.138Z,44.85
2018-02-09T02:08:01.466Z,40.70
2018-02-09T02:10:27.763Z,42.88
2018-02-09T02:12:54.827Z,42.20
2018-02-09T02:15:21.112Z,41.33
2018-02-09T02:17:47.386Z,40.90
2018-02-09T02:20:13.801Z,41.37
2018-02-09T02:22:40.810Z,42.88
2018-02-09T02:25:07.095Z,44.42
2018-02-09T02:27:33.429Z,42.62
2018-02-09T02:29:59.708Z,41.72
2018-02-09T02:32:26.040Z,43.95
2018-02-09T02:34:52.339Z,46.00
2018-02-09T02:37:19.651Z,43.45
2018-02-09T02:39:46.438Z,44.10
2018-02-09T02:42:12.739Z,38.70
2018-02-09T02:44:39.027Z,44.60
2018-02-09T02:47:05.326Z,38.78
2018-02-09T02:49:31.618Z,38.72
2018-02-09T02:51:57.906Z,40.33
2018-02-09T02:54:24.184Z,37.85
2018-02-09T02:56:50.463Z,38.35
2018-02-09T02:59:16.819Z,38.95
2018-02-09T03:01:43.881Z,39.83
2018-02-09T03:04:10.906Z,41.72
2018-02-09T03:06:37.230Z,42.75
2018-02-09T03:09:05.014Z,40.20
2018-02-09T03:11:32.087Z,39.10
2018-02-09T03:13:58.377Z,42.60
2018-02-09T03:16:24.691Z,40.95
2018-02-09T03:18:51.766Z,43.17
2018-02-09T03:21:18.797Z,41.90
2018-02-09T03:23:45.842Z,44.05
2018-02-09T03:26:12.155Z,41.47
2018-02-09T03:28:38.462Z,38.33
2018-02-09T03:31:04.745Z,39.50
2018-02-09T03:33:31.021Z,40.45
2018-02-09T03:35:57.335Z,37.45
2018-02-09T03:38:23.614Z,40.47
2018-02-09T03:40:49.953Z,38.78
2018-02-09T03:43:16.346Z,38.85
2018-02-09T03:45:42.609Z,39.33
2018-02-09T03:48:08.923Z,40.05
2018-02-09T03:50:35.233Z,38.47
2018-02-09T03:53:01.559Z,36.25
2018-02-09T03:55:27.843Z,41.28
2018-02-09T03:57:54.143Z,40.40
2018-02-09T04:00:20.431Z,38.03
2018-02-09T04:02:47.501Z,39.60
2018-02-09T04:05:13.791Z,40.15
2018-02-09T04:07:40.082Z,38.00
2018-02-09T04:10:06.355Z,40.20
2018-02-09T04:12:32.653Z,39.95
2018-02-09T04:14:58.951Z,39.80
2018-02-09T04:17:25.262Z,37.20
2018-02-09T04:19:52.269Z,38.88
2018-02-09T04:22:18.545Z,38.70
2018-02-09T04:24:44.850Z,37.95
2018-02-09T04:27:11.880Z,39.15
2018-02-09T04:29:38.150Z,37.17
2018-02-09T04:32:06.235Z,39.17
2018-02-09T04:34:32.575Z,40.95
2018-02-09T04:36:58.859Z,37.20
2018-02-09T04:39:25.158Z,39.67
2018-02-09T04:41:52.442Z,41.65
2018-02-09T04:44:18.743Z,42.65
2018-02-09T04:46:45.039Z,41.05
2018-02-09T04:49:11.340Z,39.75
2018-02-09T04:51:38.357Z,37.72
2018-02-09T04:54:04.656Z,40.35
2018-02-09T04:56:30.947Z,39.08
2018-02-09T04:58:58.002Z,38.53
2018-02-09T05:01:25.033Z,39.83
2018-02-09T05:03:51.327Z,40.00
2018-02-09T05:06:17.630Z,38.50
2018-02-09T05:08:44.655Z,40.53
2018-02-09T05:11:10.931Z,41.05
2018-02-09T05:13:38.270Z,40.55
2018-02-09T05:16:04.548Z,39.30
2018-02-09T05:18:30.834Z,37.70
2018-02-09T05:20:57.110Z,40.97
2018-02-09T05:23:24.434Z,38.30
2018-02-09T05:25:50.726Z,43.15
2018-02-09T05:28:17.787Z,39.60
2018-02-09T05:30:44.815Z,39.17
2018-02-09T05:33:11.846Z,40.17
2018-02-09T05:35:38.154Z,38.28
2018-02-09T05:38:04.450Z,39.58
2018-02-09T05:40:30.734Z,40.88
2018-02-09T05:42:57.039Z,35.72
2018-02-09T05:45:23.343Z,36.13
2018-02-09T05:47:49.650Z,35.53
2018-02-09T05:50:16.832Z,35.80
2018-02-09T05:52:43.102Z,35.00
2018-02-09T05:55:09.378Z,35.40
2018-02-09T05:57:35.666Z,35.65
2018-02-09T06:00:01.968Z,34.53
2018-02-09T06:02:28.243Z,35.35
2018-02-09T06:04:55.259Z,32.10
2018-02-09T06:07:21.538Z,37.45
2018-02-09T06:09:47.811Z,34.97
2018-02-09T06:12:14.107Z,35.67
2018-02-09T06:14:40.431Z,36.17
2018-02-09T06:17:06.725Z,36.47
2018-02-09T06:19:33.014Z,36.33
2018-02-09T06:21:59.314Z,34.65
2018-02-09T06:24:26.398Z,39.95
2018-02-09T06:26:52.662Z,36.42
2018-02-09T06:29:21.462Z,39.33
2018-02-09T06:31:48.478Z,36.10
2018-02-09T06:34:14.772Z,38.45
2018-02-09T06:36:41.055Z,40.20
2018-02-09T06:39:07.362Z,39.72
2018-02-09T06:41:33.639Z,41.10
2018-02-09T06:44:01.142Z,40.78
2018-02-09T06:46:27.431Z,37.40
2018-02-09T06:48:54.459Z,37.78
2018-02-09T06:51:20.737Z,39.58
2018-02-09T06:53:47.039Z,40.47
2018-02-09T06:56:14.066Z,36.10
2018-02-09T06:58:40.362Z,37.08
2018-02-09T07:01:06.646Z,39.55
2018-02-09T07:03:33.682Z,36.28
2018-02-09T07:06:00.711Z,37.00
2018-02-09T07:08:27.010Z,36.88
2018-02-09T07:10:53.278Z,39.90
2018-02-09T07:13:19.557Z,39.28
2018-02-09T07:15:45.822Z,37.97
2018-02-09T07:18:12.121Z,38.58
2018-02-09T07:20:38.445Z,35.85
2018-02-09T07:23:04.720Z,35.80
2018-02-09T07:25:31.026Z,36.70
2018-02-09T07:27:57.314Z,35.00
2018-02-09T07:30:24.348Z,37.63
2018-02-09T07:32:50.620Z,37.53
2018-02-09T07:35:16.957Z,32.95
2018-02-09T07:37:43.226Z,33.03
2018-02-09T07:40:09.527Z,34.38
2018-02-09T07:42:35.826Z,36.63
2018-02-09T07:45:02.138Z,34.33
2018-02-09T07:47:29.171Z,37.55
2018-02-09T07:49:55.482Z,40.28
2018-02-09T07:52:21.750Z,46.42
2018-02-09T07:54:48.059Z,40.72
2018-02-09T07:57:15.083Z,36.97
2018-02-09T07:59:41.410Z,38.13
2018-02-09T08:02:07.719Z,40.03
2018-02-09T08:04:34.022Z,36.45
2018-02-09T08:07:01.045Z,38.72
2018-02-09T08:09:28.093Z,37.80
2018-02-09T08:11:55.119Z,37.97
2018-02-09T08:14:21.494Z,36.90
2018-02-09T08:16:47.799Z,39.38
2018-02-09T08:19:14.106Z,36.53
2018-02-09T08:21:40.373Z,39.10
2018-02-09T08:24:07.411Z,39.03
2018-02-09T08:26:34.421Z,38.22
2018-02-09T08:29:00.715Z,39.92
2018-02-09T08:31:26.986Z,35.72
2018-02-09T08:33:53.273Z,35.88
2018-02-09T08:36:19.558Z,37.58
2018-02-09T08:38:45.847Z,39.58
2018-02-09T08:41:12.131Z,31.08
2018-02-09T08:43:39.158Z,28.73
2018-02-09T08:46:05.438Z,26.95
2018-02-09T08:48:31.726Z,26.33
2018-02-09T08:50:57.998Z,23.98
2018-02-09T08:53:25.327Z,25.37
2018-02-09T08:55:52.342Z,32.88
2018-02-09T08:58:18.619Z,31.12
2018-02-09T09:00:46.670Z,32.22
2018-02-09T09:03:13.692Z,34.55
2018-02-09T09:05:39.998Z,27.98
2018-02-09T09:08:06.284Z,25.73
2018-02-09T09:10:33.326Z,22.65
2018-02-09T09:13:00.422Z,23.20
2018-02-09T09:15:26.707Z,24.60
2018-02-09T09:17:53.730Z,26.05
2018-02-09T09:20:20.024Z,26.25
2018-02-09T09:22:46.294Z,25.23
2018-02-09T09:25:12.566Z,26.52
2018-02-09T09:27:38.878Z,23.17
2018-02-09T09:30:05.902Z,25.02
2018-02-09T09:32:32.174Z,25.45
2018-02-09T09:34:58.470Z,24.90
2018-02-09T09:37:24.751Z,23.77
2018-02-09T09:39:51.051Z,23.77
2018-02-09T09:42:19.125Z,23.20
2018-02-09T09:44:46.162Z,24.75
2018-02-09T09:47:13.188Z,24.27
2018-02-09T09:49:40.226Z,22.67
2018-02-09T09:52:06.502Z,26.48
2018-02-09T09:54:32.796Z,23.20
2018-02-09T09:57:00.879Z,24.92
2018-02-09T09:59:27.152Z,25.83
2018-02-09T10:01:53.442Z,23.27
2018-02-09T10:04:20.461Z,27.87
2018-02-09T10:06:46.738Z,23.98
2018-02-09T10:09:13.010Z,23.92
2018-02-09T10:11:39.303Z,23.87
2018-02-09T10:14:05.590Z,27.42
2018-02-09T10:16:32.530Z,25.12
2018-02-09T10:18:58.810Z,25.80
2018-02-09T10:21:25.098Z,25.85
2018-02-09T10:23:51.390Z,26.25
2018-02-09T10:26:17.700Z,29.17
2018-02-09T10:28:43.979Z,26.20
2018-02-09T10:31:10.306Z,27.33
2018-02-09T10:33:36.585Z,26.60
2018-02-09T10:36:02.916Z,29.23
2018-02-09T10:38:29.306Z,38.40
2018-02-09T10:40:55.607Z,25.30
2018-02-09T10:43:21.886Z,25.55
2018-02-09T10:45:48.977Z,24.85
2018-02-09T10:48:15.260Z,25.62
2018-02-09T10:50:42.375Z,24.63
2018-02-09T10:53:09.670Z,26.12
2018-02-09T10:55:36.742Z,24.98
2018-02-09T10:58:03.032Z,22.90
2018-02-09T11:00:37.203Z,26.10
2018-02-09T11:03:03.482Z,25.58
2018-02-09T11:05:31.106Z,24.90
2018-02-09T11:07:57.371Z,24.55
2018-02-09T11:10:29.718Z,24.70
2018-02-09T11:12:56.037Z,25.65
2018-02-09T11:15:22.338Z,24.58
2018-02-09T11:17:48.612Z,28.50
2018-02-09T11:20:14.882Z,23.42
2018-02-09T11:22:41.178Z,24.25
2018-02-09T11:25:08.546Z,27.62
2018-02-09T11:27:34.824Z,24.67
2018-02-09T11:30:01.155Z,25.23
2018-02-09T11:32:27.452Z,25.77
2018-02-09T11:34:54.473Z,25.77
2018-02-09T11:37:21.535Z,30.52
2018-02-09T11:39:48.579Z,30.10
2018-02-09T11:42:14.858Z,30.65
2018-02-09T11:44:41.151Z,25.85
2018-02-09T11:47:08.162Z,28.50
2018-02-09T11:49:34.450Z,25.58
2018-02-09T11:52:00.766Z,24.45
2018-02-09T11:54:27.851Z,26.85
2018-02-09T11:56:54.150Z,27.42
2018-02-09T11:59:21.454Z,28.87
2018-02-09T12:01:47.731Z,28.65
2018-02-09T12:04:14.778Z,24.95
2018-02-09T12:06:42.830Z,26.40
2018-02-09T12:09:09.134Z,26.25
2018-02-09T12:11:35.438Z,26.45
2018-02-09T12:14:01.719Z,27.08
2018-02-09T12:16:28.822Z,27.10
2018-02-09T12:18:55.118Z,27.52
2018-02-09T12:21:22.163Z,27.85
2018-02-09T12:23:49.186Z,28.23
2018-02-09T12:26:15.467Z,26.17
2018-02-09T12:28:41.758Z,28.35
2018-02-09T12:31:08.770Z,29.10
2018-02-09T12:33:35.074Z,26.33
2018-02-09T12:36:01.366Z,26.50
2018-02-09T12:38:28.396Z,28.00
2018-02-09T12:40:54.680Z,28.62
2018-02-09T12:43:21.000Z,27.37
2018-02-09T12:45:48.019Z,27.48
2018-02-09T12:48:15.034Z,26.55
2018-02-09T12:50:41.317Z,27.50
2018-02-09T12:53:07.623Z,27.45
2018-02-09T12:55:34.645Z,28.83
2018-02-09T12:58:00.956Z,26.87
2018-02-09T13:00:27.242Z,28.00
2018-02-09T13:02:54.281Z,26.23
2018-02-09T13:05:21.294Z,29.95
2018-02-09T13:07:47.607Z,30.80
2018-02-09T13:10:13.898Z,40.65
2018-02-09T13:12:53.407Z,29.33
2018-02-09T13:15:19.691Z,34.15
2018-02-09T13:17:45.999Z,36.70
2018-02-09T13:20:14.063Z,28.98
2018-02-09T13:22:53.429Z,29.08
2018-02-09T13:25:19.718Z,30.20
2018-02-09T13:27:46.004Z,29.42
2018-02-09T13:30:12.299Z,30.45
2018-02-09T13:35:33.715Z,29.87
2018-02-09T13:37:59.990Z,31.42
2018-02-09T13:40:27.307Z,26.98
2018-02-09T13:42:54.345Z,31.98
2018-02-09T13:45:22.399Z,30.48
2018-02-09T13:47:48.690Z,31.60
2018-02-09T13:50:14.966Z,28.92
2018-02-09T13:52:41.238Z,30.08
2018-02-09T13:55:07.576Z,29.33
2018-02-09T13:57:33.863Z,31.37
2018-02-09T14:00:00.146Z,28.45
2018-02-09T14:02:26.462Z,26.87
2018-02-09T14:04:52.740Z,51.10
2018-02-09T14:07:19.038Z,28.33
2018-02-09T14:09:45.371Z,29.75
2018-02-09T14:12:11.654Z,31.25
2018-02-09T14:14:38.668Z,27.58
2018-02-09T14:17:04.959Z,30.20
2018-02-09T14:19:31.260Z,28.83
2018-02-09T14:21:58.273Z,30.17
2018-02-09T14:24:25.074Z,30.12
2018-02-09T14:26:51.364Z,28.05
2018-02-09T14:29:18.407Z,29.40
2018-02-09T14:31:44.703Z,30.23
2018-02-09T14:34:11.002Z,31.30
2018-02-09T14:36:37.270Z,28.12
2018-02-09T14:39:04.584Z,29.98
2018-02-09T14:41:30.882Z,30.70
2018-02-09T14:43:57.174Z,31.40
2018-02-09T14:46:23.467Z,29.05
2018-02-09T14:48:50.527Z,29.52
2018-02-09T14:51:17.108Z,30.73
2018-02-09T14:53:43.402Z,28.80
2018-02-09T14:56:09.682Z,34.95
2018-02-09T14:58:35.985Z,34.88
2018-02-09T15:01:02.279Z,32.15
2018-02-09T15:03:28.575Z,32.10
2018-02-09T15:05:54.859Z,30.60
2018-02-09T15:08:21.178Z,30.75
2018-02-09T15:10:47.446Z,34.88
2018-02-09T15:13:13.774Z,34.47
2018-02-09T15:15:40.054Z,30.45
2018-02-09T15:18:06.370Z,29.65
2018-02-09T15:20:33.409Z,30.92
2018-02-09T15:22:59.707Z,33.65
2018-02-09T15:25:25.989Z,35.15
2018-02-09T15:27:53.036Z,33.45
2018-02-09T15:30:20.055Z,31.45
2018-02-09T15:32:46.361Z,32.45
2018-02-09T15:35:12.655Z,32.22
2018-02-09T15:37:38.951Z,33.47
2018-02-09T15:40:05.254Z,34.42
2018-02-09T15:42:32.567Z,34.65
2018-02-09T15:44:58.858Z,34.67
2018-02-09T15:47:25.146Z,36.17
2018-02-09T15:49:51.434Z,32.63
2018-02-09T15:52:18.492Z,35.65
2018-02-09T15:54:45.521Z,36.67
2018-02-09T15:57:13.159Z,32.08
2018-02-09T15:59:39.442Z,39.72
2018-02-09T16:02:05.724Z,52.17
2018-02-09T16:04:32.005Z,40.72
2018-02-09T16:06:58.338Z,42.67
2018-02-09T16:09:24.674Z,35.17
2018-02-09T16:11:50.942Z,39.47
2018-02-09T16:14:18.275Z,44.22
2018-02-09T16:16:44.555Z,34.17
2018-02-09T16:19:11.593Z,34.13
2018-02-09T16:21:37.883Z,31.75
2018-02-09T16:24:04.226Z,34.92
2018-02-09T16:26:30.534Z,36.50
2018-02-09T16:28:56.870Z,30.02
2018-02-09T16:31:23.150Z,32.63
2018-02-09T16:33:49.471Z,33.35
2018-02-09T16:36:15.746Z,34.40
2018-02-09T16:38:43.046Z,34.45
2018-02-09T16:41:09.375Z,34.85
2018-02-09T16:43:35.687Z,34.22
2018-02-09T16:46:02.010Z,51.17
2018-02-09T16:48:28.312Z,47.78
2018-02-09T16:50:54.611Z,38.92
2018-02-09T16:53:21.931Z,38.72
2018-02-09T16:55:49.271Z,33.22
2018-02-09T16:58:15.594Z,33.15
2018-02-09T17:00:41.866Z,38.22
2018-02-09T17:03:08.163Z,43.00
2018-02-09T17:05:34.438Z,36.92
2018-02-09T17:08:00.754Z,41.00
2018-02-09T17:10:27.051Z,36.08
2018-02-09T17:12:53.314Z,33.78
2018-02-09T17:15:19.578Z,36.63
2018-02-09T17:17:46.597Z,34.28
2018-02-09T17:20:13.899Z,36.58
2018-02-09T17:22:40.195Z,40.65
2018-02-09T17:25:07.230Z,36.42
2018-02-09T17:27:33.514Z,33.63
2018-02-09T17:29:59.811Z,33.22
2018-02-09T17:32:26.102Z,36.53
2018-02-09T17:34:52.406Z,33.75
2018-02-09T17:37:18.682Z,38.60
2018-02-09T17:39:44.977Z,35.22
2018-02-09T17:42:11.259Z,35.53
2018-02-09T17:44:39.374Z,35.45
2018-02-09T17:47:05.666Z,34.95
2018-02-09T17:49:32.734Z,36.28
2018-02-09T17:51:59.741Z,40.38
2018-02-09T17:54:26.235Z,36.90
2018-02-09T17:56:52.508Z,36.50
2018-02-09T17:59:18.799Z,35.85
2018-02-09T18:01:45.115Z,34.45
2018-02-09T18:04:11.415Z,35.30
2018-02-09T18:06:38.451Z,36.33
2018-02-09T18:09:05.479Z,34.05
2018-02-09T18:11:31.770Z,32.42
2018-02-09T18:13:58.050Z,33.78
2018-02-09T18:16:24.377Z,41.78
2018-02-09T18:18:50.682Z,39.22
2018-02-09T18:21:16.994Z,37.20
2018-02-09T18:23:44.314Z,32.85
2018-02-09T18:26:10.626Z,35.50
2018-02-09T18:28:36.987Z,33.70
2018-02-09T18:31:03.271Z,32.10
2018-02-09T18:33:29.588Z,38.22
2018-02-09T18:35:55.889Z,31.98
2018-02-09T18:38:23.232Z,33.22
2018-02-09T18:40:49.511Z,33.58
2018-02-09T18:43:15.794Z,36.90
2018-02-09T18:45:42.094Z,35.00
2018-02-09T18:48:08.378Z,33.95
2018-02-09T18:50:34.678Z,32.95
2018-02-09T18:53:01.004Z,35.15
2018-02-09T18:55:27.306Z,33.72
2018-02-09T18:57:53.583Z,33.55
2018-02-09T19:00:19.860Z,35.55
2018-02-09T19:02:46.198Z,42.88
2018-02-09T19:05:12.489Z,34.65
2018-02-09T19:07:38.766Z,40.80
2018-02-09T19:10:05.824Z,51.40
2018-02-09T19:12:32.875Z,49.75
2018-02-09T19:14:59.897Z,56.00
2018-02-09T19:17:27.210Z,73.37
2018-02-09T19:19:53.490Z,44.65
2018-02-09T19:22:19.788Z,45.45
2018-02-09T19:24:46.095Z,34.08
2018-02-09T19:27:12.406Z,49.22
2018-02-09T19:29:38.682Z,36.70
2018-02-09T19:32:04.975Z,35.78
2018-02-09T19:34:31.246Z,36.38
2018-02-09T19:36:57.531Z,36.70
2018-02-09T19:39:24.372Z,35.83
2018-02-09T19:41:50.673Z,37.90
2018-02-09T19:44:17.004Z,36.88
2018-02-09T19:46:44.059Z,34.83
2018-02-09T19:49:12.171Z,34.65
2018-02-09T19:51:39.526Z,33.05
2018-02-09T19:54:05.811Z,33.33
2018-02-09T19:56:32.872Z,32.92
2018-02-09T19:58:59.902Z,35.65
2018-02-09T20:01:26.190Z,36.38
2018-02-09T20:03:52.510Z,32.30
2018-02-09T20:06:18.810Z,36.42
2018-02-09T20:08:45.827Z,36.22
2018-02-09T20:11:12.128Z,35.15
2018-02-09T20:13:38.423Z,30.37
2018-02-09T20:16:05.474Z,36.65
2018-02-09T20:18:31.751Z,33.55
2018-02-09T20:20:58.034Z,32.05
2018-02-09T20:23:24.330Z,34.45
2018-02-09T20:25:50.625Z,32.30
2018-02-09T20:28:17.087Z,32.92
2018-02-09T20:30:43.389Z,32.88
2018-02-09T20:33:09.682Z,32.15
2018-02-09T20:35:35.982Z,31.62
2018-02-09T20:38:03.021Z,31.98
2018-02-09T20:40:30.059Z,33.42
2018-02-09T20:42:57.084Z,33.60
2018-02-09T20:45:23.447Z,32.65
2018-02-09T20:47:50.467Z,35.17
2018-02-09T20:50:16.766Z,33.67
2018-02-09T20:52:43.049Z,32.92
2018-02-09T20:55:10.138Z,34.88
2018-02-09T20:57:36.430Z,35.55
2018-02-09T21:00:02.743Z,34.10
2018-02-09T21:02:29.007Z,35.45
2018-02-09T21:04:56.030Z,36.67
2018-02-09T21:07:22.318Z,32.75
2018-02-09T21:09:48.590Z,34.72
2018-02-09T21:12:14.862Z,33.78
2018-02-09T21:14:41.137Z,35.63
2018-02-09T21:17:07.441Z,32.67
2018-02-09T21:19:33.737Z,35.72
2018-02-09T21:22:00.764Z,36.17
2018-02-09T21:24:27.043Z,32.22
2018-02-09T21:26:54.414Z,32.65
2018-02-09T21:29:20.687Z,32.85
2018-02-09T21:31:47.730Z,32.80
2018-02-09T21:34:14.009Z,30.33
2018-02-09T21:36:40.306Z,32.88
2018-02-09T21:39:08.349Z,31.52
2018-02-09T21:41:34.638Z,31.45
2018-02-09T21:44:01.683Z,34.00
2018-02-09T21:46:28.000Z,33.45
2018-02-09T21:48:55.019Z,31.65
2018-02-09T21:51:21.354Z,31.20
2018-02-09T21:53:47.644Z,31.20
2018-02-09T21:56:13.946Z,31.27
2018-02-09T21:58:40.233Z,31.52
2018-02-09T22:01:06.553Z,32.08
2018-02-09T22:03:32.828Z,32.47
2018-02-09T22:05:59.870Z,30.25
2018-02-09T22:08:26.883Z,33.55
2018-02-09T22:10:53.183Z,33.10
2018-02-09T22:13:19.467Z,31.92
2018-02-09T22:15:46.498Z,31.77
2018-02-09T22:18:12.773Z,32.92
2018-02-09T22:20:39.126Z,31.05
2018-02-09T22:23:05.418Z,28.65
2018-02-09T22:25:32.458Z,31.92
2018-02-09T22:27:59.478Z,31.12
2018-02-09T22:30:25.774Z,32.13
2018-02-09T22:32:52.049Z,33.20
2018-02-09T22:35:18.366Z,34.45
2018-02-09T22:37:44.648Z,31.95
2018-02-09T22:40:10.919Z,35.35
2018-02-09T22:42:37.223Z,33.78
2018-02-09T22:45:03.511Z,32.90
2018-02-09T22:47:30.531Z,35.47
2018-02-09T22:49:56.826Z,31.55
2018-02-09T22:52:23.132Z,37.10
2018-02-09T22:54:49.426Z,33.00
2018-02-09T22:57:15.727Z,32.08
2018-02-09T22:59:41.998Z,34.65
2018-02-09T23:02:08.282Z,34.78
2018-02-09T23:04:35.318Z,35.10
2018-02-09T23:07:01.594Z,36.05
2018-02-09T23:09:27.870Z,34.78
2018-02-09T23:11:54.171Z,35.55
2018-02-09T23:14:21.277Z,37.63
2018-02-09T23:16:47.591Z,35.50
2018-02-09T23:19:13.862Z,33.78
2018-02-09T23:21:40.151Z,36.33
2018-02-09T23:24:06.514Z,36.33
2018-02-09T23:26:32.818Z,34.45
2018-02-09T23:28:59.114Z,33.90
2018-02-09T23:31:26.126Z,37.40
2018-02-09T23:33:52.426Z,35.88
2018-02-09T23:36:18.701Z,33.50
2018-02-09T23:38:44.998Z,34.65
2018-02-09T23:41:11.286Z,32.72
2018-02-09T23:43:37.606Z,37.22
2018-02-09T23:46:04.624Z,31.15
2018-02-09T23:48:30.926Z,33.20
2018-02-09T23:50:57.207Z,34.45
2018-02-09T23:53:24.235Z,36.50
2018-02-09T23:55:51.583Z,35.58
2018-02-09T23:58:17.858Z,33.83
